Time;durP1;ratioP1;P1;durP2;ratioP2;P2;SDS_P1;SDS_P2;PMS_P1;PMS_P2;Temp;Humidity;BMP_temperature;BMP_pressure;BME280_temperature;BME280_humidity;BME280_pressure;Samples;Min_cycle;Max_cycle;Signal;HPM_P1;HPM_P2
2023/10/22 00:01:03;;;;;;;4.50;1.07;;;;;;;;;;5027469;28;20439;-81
2023/10/22 00:03:29;;;;;;;5.47;1.10;;;;;;;;;;5038249;28;20412;-81
2023/10/22 00:05:55;;;;;;;4.67;1.27;;;;;;;;;;5038159;28;20416;-81
2023/10/22 00:08:21;;;;;;;2.53;1.07;;;;;;;;;;5055972;28;20412;-78
2023/10/22 00:10:47;;;;;;;7.93;1.73;;;;;;;;;;5056297;28;20749;-81
2023/10/22 00:13:13;;;;;;;2.83;0.97;;;;;;;;;;5021606;28;20420;-77
2023/10/22 00:15:39;;;;;;;2.13;1.00;;;;;;;;;;5055715;28;20416;-82
2023/10/22 00:18:05;;;;;;;7.00;1.40;;;;;;;;;;5055989;28;20747;-80
2023/10/22 00:20:31;;;;;;;2.63;1.10;;;;;;;;;;5055841;28;20414;-80
2023/10/22 00:22:57;;;;;;;5.83;1.33;;;;;;;;;;5021360;28;20475;-79
2023/10/22 00:25:22;;;;;;;2.80;1.10;;;;;;;;;;5054495;28;20412;-78
2023/10/22 00:27:50;;;;;;;2.90;1.00;;;;;;;;;;5055904;28;20937;-81
2023/10/22 00:30:16;;;;;;;4.23;1.30;;;;;;;;;;5054269;28;20408;-81
2023/10/22 00:32:42;;;;;;;2.87;1.00;;;;;;;;;;5055254;28;20490;-84
2023/10/22 00:35:07;;;;;;;2.83;1.33;;;;;;;;;;5055090;28;20451;-84
2023/10/22 00:37:34;;;;;;;2.97;1.17;;;;;;;;;;5053591;28;20481;-80
2023/10/22 00:40:00;;;;;;;2.47;1.30;;;;;;;;;;5053511;28;20483;-85
2023/10/22 00:42:26;;;;;;;3.60;1.57;;;;;;;;;;5036866;28;20932;-84
2023/10/22 00:44:52;;;;;;;5.50;1.50;;;;;;;;;;5054532;28;20456;-84
2023/10/22 00:47:18;;;;;;;4.07;2.17;;;;;;;;;;5036701;28;20435;-81
2023/10/22 00:49:44;;;;;;;2.00;0.90;;;;;;;;;;5036930;28;20473;-83
2023/10/22 00:52:11;;;;;;;6.47;1.23;;;;;;;;;;5036973;28;20434;-83
2023/10/22 00:54:37;;;;;;;1.50;0.77;;;;;;;;;;5054853;28;20404;-83
2023/10/22 00:57:04;;;;;;;4.30;1.10;;;;;;;;;;5054698;28;20744;-83
2023/10/22 00:59:30;;;;;;;3.03;1.00;;;;;;;;;;5054606;28;20413;-83
2023/10/22 01:01:56;;;;;;;5.03;1.00;;;;;;;;;;5054336;28;20502;-83
2023/10/22 01:04:23;;;;;;;4.47;1.13;;;;;;;;;;5054383;28;20436;-83
2023/10/22 01:06:50;;;;;;;4.73;1.07;;;;;;;;;;5054581;28;20446;-82
2023/10/22 01:09:16;;;;;;;4.33;1.20;;;;;;;;;;5036838;28;20426;-81
2023/10/22 01:11:58;;;;;;;2.83;1.10;;;;;;;;;;5036620;28;20424;-82
2023/10/22 01:14:24;;;;;;;5.00;1.00;;;;;;;;;;5059305;28;20412;-83
2023/10/22 01:16:50;;;;;;;1.97;1.00;;;;;;;;;;5039361;28;20419;-82
2023/10/22 01:19:17;;;;;;;4.40;0.97;;;;;;;;;;5020645;28;20424;-82
2023/10/22 01:21:43;;;;;;;3.83;0.90;;;;;;;;;;5036529;28;20459;-82
2023/10/22 01:24:09;;;;;;;4.70;1.37;;;;;;;;;;5020049;28;20412;-83
2023/10/22 01:26:45;;;;;;;3.17;0.70;;;;;;;;;;5036592;28;20442;-82
2023/10/22 01:29:11;;;;;;;3.03;1.00;;;;;;;;;;5053234;28;20419;-82
2023/10/22 01:31:37;;;;;;;1.83;0.60;;;;;;;;;;5052898;28;20928;-83
2023/10/22 01:34:03;;;;;;;2.80;1.07;;;;;;;;;;5052787;28;20429;-83
2023/10/22 01:36:29;;;;;;;1.20;0.70;;;;;;;;;;5035929;28;20462;-83
2023/10/22 01:38:55;;;;;;;3.10;0.80;;;;;;;;;;5053947;28;20412;-83
2023/10/22 01:41:21;;;;;;;3.03;1.00;;;;;;;;;;5053678;28;20474;-83
2023/10/22 01:43:47;;;;;;;2.30;1.10;;;;;;;;;;5054152;28;20439;-82
2023/10/22 01:46:13;;;;;;;1.33;0.70;;;;;;;;;;5053521;28;20408;-83
2023/10/22 01:48:39;;;;;;;2.63;0.90;;;;;;;;;;5036388;28;20881;-82
2023/10/22 01:51:05;;;;;;;0.90;0.63;;;;;;;;;;5053015;28;20527;-82
2023/10/22 01:53:31;;;;;;;2.07;1.00;;;;;;;;;;5036163;28;20412;-83
2023/10/22 01:55:57;;;;;;;2.13;0.80;;;;;;;;;;5026560;28;20448;-79
2023/10/22 01:58:24;;;;;;;3.63;1.00;;;;;;;;;;5016521;28;20405;-82
2023/10/22 02:00:50;;;;;;;4.70;0.80;;;;;;;;;;5034062;28;20407;-83
2023/10/22 02:03:16;;;;;;;1.77;0.70;;;;;;;;;;5016626;28;20903;-82
2023/10/22 02:05:42;;;;;;;2.40;0.53;;;;;;;;;;5016450;28;20421;-82
2023/10/22 02:08:08;;;;;;;1.33;0.60;;;;;;;;;;5033935;28;20466;-86
2023/10/22 02:10:34;;;;;;;2.20;0.70;;;;;;;;;;5016861;28;20404;-83
2023/10/22 02:13:00;;;;;;;1.77;0.80;;;;;;;;;;5033901;28;20436;-83
2023/10/22 02:15:27;;;;;;;1.10;0.60;;;;;;;;;;5016005;28;20983;-84
2023/10/22 02:17:53;;;;;;;2.97;0.73;;;;;;;;;;5018832;28;20440;-84
2023/10/22 02:20:19;;;;;;;1.53;0.70;;;;;;;;;;5037365;28;20412;-83
2023/10/22 02:22:45;;;;;;;1.23;0.70;;;;;;;;;;5037273;28;20471;-83
2023/10/22 02:25:11;;;;;;;1.67;0.60;;;;;;;;;;5019839;28;20421;-82
2023/10/22 02:27:37;;;;;;;2.70;0.60;;;;;;;;;;5037664;28;20417;-81
2023/10/22 02:30:03;;;;;;;1.47;0.57;;;;;;;;;;5037784;28;20401;-81
2023/10/22 02:32:29;;;;;;;1.27;0.70;;;;;;;;;;5037366;28;20509;-82
2023/10/22 02:34:55;;;;;;;1.50;0.70;;;;;;;;;;5036802;28;20924;-83
2023/10/22 02:37:21;;;;;;;3.30;0.60;;;;;;;;;;5019627;28;20618;-82
2023/10/22 02:39:47;;;;;;;0.80;0.60;;;;;;;;;;5019662;28;20425;-83
2023/10/22 02:42:13;;;;;;;1.90;0.60;;;;;;;;;;5019328;28;20474;-83
2023/10/22 02:44:39;;;;;;;0.87;0.60;;;;;;;;;;5037097;28;20423;-82
2023/10/22 02:47:05;;;;;;;1.10;0.63;;;;;;;;;;5037778;28;20492;-83
2023/10/22 02:49:31;;;;;;;1.43;0.83;;;;;;;;;;5037664;28;20414;-85
2023/10/22 02:51:57;;;;;;;6.20;1.20;;;;;;;;;;5019693;28;20421;-82
2023/10/22 02:54:24;;;;;;;1.10;0.60;;;;;;;;;;5037011;28;20475;-83
2023/10/22 02:56:49;;;;;;;1.43;0.80;;;;;;;;;;5018976;28;20417;-83
2023/10/22 02:59:16;;;;;;;2.10;0.80;;;;;;;;;;5037067;28;20413;-81
2023/10/22 03:01:42;;;;;;;3.30;0.60;;;;;;;;;;5036588;28;20463;-81
2023/10/22 03:04:08;;;;;;;2.20;0.63;;;;;;;;;;5019752;28;20636;-80
2023/10/22 03:06:34;;;;;;;1.63;0.63;;;;;;;;;;5036771;28;20421;-82
2023/10/22 03:09:00;;;;;;;2.00;0.70;;;;;;;;;;5036732;28;20401;-83
2023/10/22 03:11:26;;;;;;;1.17;0.70;;;;;;;;;;5018822;28;20925;-81
2023/10/22 03:13:52;;;;;;;0.80;0.60;;;;;;;;;;5036301;28;20449;-81
2023/10/22 03:16:18;;;;;;;0.90;0.60;;;;;;;;;;5039788;28;20408;-81
2023/10/22 03:18:45;;;;;;;0.80;0.50;;;;;;;;;;5038736;28;20524;-81
2023/10/22 03:21:16;;;;;;;1.63;0.60;;;;;;;;;;5056858;28;20415;-82
2023/10/22 03:23:42;;;;;;;1.00;0.57;;;;;;;;;;5056133;28;20447;-81
2023/10/22 03:26:13;;;;;;;1.00;0.60;;;;;;;;;;5056883;28;20412;-82
2023/10/22 03:28:39;;;;;;;1.00;0.60;;;;;;;;;;5037964;28;20423;-81
2023/10/22 03:31:05;;;;;;;3.53;0.60;;;;;;;;;;5038620;28;20814;-82
2023/10/22 03:33:32;;;;;;;1.50;0.60;;;;;;;;;;5042871;28;20185;-82
2023/10/22 03:35:58;;;;;;;1.07;0.50;;;;;;;;;;5043084;28;20577;-83
2023/10/22 03:38:27;;;;;;;0.90;0.50;;;;;;;;;;5022761;28;20459;-83
2023/10/22 03:41:00;;;;;;;0.80;0.50;;;;;;;;;;5055869;28;20256;-82
2023/10/22 03:43:28;;;;;;;0.73;0.50;;;;;;;;;;5021688;28;20232;-82
2023/10/22 03:45:54;;;;;;;3.28;0.75;;;;;;;;;;5056072;28;20650;-81
2023/10/22 03:48:20;;;;;;;0.70;0.50;;;;;;;;;;5022248;28;20206;-83
2023/10/22 03:50:46;;;;;;;1.13;0.77;;;;;;;;;;5038087;28;20177;-82
2023/10/22 03:53:12;;;;;;;0.70;0.50;;;;;;;;;;5056222;28;20426;-82
2023/10/22 03:55:38;;;;;;;0.90;0.50;;;;;;;;;;5038025;28;20402;-83
2023/10/22 03:58:04;;;;;;;2.17;0.60;;;;;;;;;;5021238;28;20924;-81
2023/10/22 04:00:30;;;;;;;2.87;0.70;;;;;;;;;;5056241;28;20745;-82
2023/10/22 04:02:55;;;;;;;0.80;0.50;;;;;;;;;;5037517;28;20604;-82
2023/10/22 04:05:23;;;;;;;0.70;0.50;;;;;;;;;;5037979;28;20490;-82
2023/10/22 04:07:49;;;;;;;0.70;0.50;;;;;;;;;;5056150;28;20423;-82
2023/10/22 04:10:16;;;;;;;1.57;0.83;;;;;;;;;;5055538;28;20738;-82
2023/10/22 04:12:42;;;;;;;0.80;0.50;;;;;;;;;;5037454;28;20829;-82
2023/10/22 04:15:08;;;;;;;0.60;0.40;;;;;;;;;;5037908;28;20484;-82
2023/10/22 04:17:34;;;;;;;2.50;0.50;;;;;;;;;;5021301;28;20440;-82
2023/10/22 04:20:00;;;;;;;1.80;0.60;;;;;;;;;;5018515;28;20496;-81
2023/10/22 04:22:26;;;;;;;0.93;0.50;;;;;;;;;;5020115;28;20471;-82
2023/10/22 04:24:52;;;;;;;1.02;0.65;;;;;;;;;;5037697;28;20440;-81
2023/10/22 04:27:18;;;;;;;0.93;0.60;;;;;;;;;;5037974;28;20181;-82
2023/10/22 04:29:46;;;;;;;1.60;0.60;;;;;;;;;;5037571;28;20412;-81
2023/10/22 04:32:12;;;;;;;0.87;0.40;;;;;;;;;;5023845;28;20193;-82
2023/10/22 04:34:39;;;;;;;0.80;0.50;;;;;;;;;;5035595;28;20397;-82
2023/10/22 04:37:06;;;;;;;0.87;0.50;;;;;;;;;;5017158;28;20480;-82
2023/10/22 04:39:32;;;;;;;0.93;0.50;;;;;;;;;;5017605;28;20778;-82
2023/10/22 04:41:58;;;;;;;0.90;0.50;;;;;;;;;;5036914;28;20461;-82
2023/10/22 04:44:24;;;;;;;0.60;0.47;;;;;;;;;;5037080;28;20963;-82
2023/10/22 04:46:51;;;;;;;1.00;0.60;;;;;;;;;;5054947;28;20400;-81
2023/10/22 04:49:17;;;;;;;1.53;0.70;;;;;;;;;;5037424;28;20830;-82
2023/10/22 04:51:43;;;;;;;0.70;0.50;;;;;;;;;;5054719;28;20407;-82
2023/10/22 04:54:09;;;;;;;0.77;0.55;;;;;;;;;;5036632;28;20396;-82
2023/10/22 04:56:35;;;;;;;1.73;0.50;;;;;;;;;;5037070;28;20598;-82
2023/10/22 04:59:01;;;;;;;0.60;0.50;;;;;;;;;;5020511;28;20404;-82
2023/10/22 05:01:27;;;;;;;1.63;0.83;;;;;;;;;;5054491;28;20753;-82
2023/10/22 05:03:53;;;;;;;0.60;0.50;;;;;;;;;;5020419;28;20408;-82
2023/10/22 05:06:19;;;;;;;0.70;0.50;;;;;;;;;;5036785;28;20464;-82
2023/10/22 05:08:45;;;;;;;0.60;0.40;;;;;;;;;;5054635;28;20165;-82
2023/10/22 05:11:15;;;;;;;1.13;0.47;;;;;;;;;;5020599;28;20508;-82
2023/10/22 05:13:41;;;;;;;0.60;0.40;;;;;;;;;;5054488;28;20392;-82
2023/10/22 05:16:09;;;;;;;0.70;0.50;;;;;;;;;;5054310;28;20397;-82
2023/10/22 05:18:35;;;;;;;1.00;0.50;;;;;;;;;;5037428;28;20173;-83
2023/10/22 05:21:04;;;;;;;0.87;0.50;;;;;;;;;;5036311;28;20427;-82
2023/10/22 05:23:30;;;;;;;0.80;0.50;;;;;;;;;;5035960;28;20479;-82
2023/10/22 05:26:09;;;;;;;7.13;0.80;;;;;;;;;;5037058;28;20418;-82
2023/10/22 05:28:36;;;;;;;0.60;0.40;;;;;;;;;;5055086;28;20412;-82
2023/10/22 05:31:02;;;;;;;1.97;0.50;;;;;;;;;;5054391;28;20457;-82
2023/10/22 05:33:28;;;;;;;0.97;0.50;;;;;;;;;;5054220;28;20412;-82
2023/10/22 05:35:54;;;;;;;2.93;0.50;;;;;;;;;;5036259;28;20408;-82
2023/10/22 05:38:20;;;;;;;0.70;0.50;;;;;;;;;;5054497;28;20999;-82
2023/10/22 05:40:46;;;;;;;2.47;0.57;;;;;;;;;;5053967;28;20435;-83
2023/10/22 05:43:12;;;;;;;0.93;0.50;;;;;;;;;;5036643;28;20463;-82
2023/10/22 05:45:38;;;;;;;1.53;0.50;;;;;;;;;;5054469;28;20401;-82
2023/10/22 05:48:04;;;;;;;1.33;0.70;;;;;;;;;;5036425;28;20540;-83
2023/10/22 05:50:30;;;;;;;1.45;0.60;;;;;;;;;;5055149;28;20420;-80
2023/10/22 05:52:56;;;;;;;0.70;0.50;;;;;;;;;;5028120;28;20676;-81
2023/10/22 05:55:22;;;;;;;1.13;0.57;;;;;;;;;;5046074;28;20412;-80
2023/10/22 05:57:48;;;;;;;1.30;0.60;;;;;;;;;;5041239;28;20416;-81
2023/10/22 06:00:14;;;;;;;2.10;0.70;;;;;;;;;;5024251;28;20479;-81
2023/10/22 06:02:40;;;;;;;1.70;0.70;;;;;;;;;;5058503;28;20470;-82
2023/10/22 06:05:12;;;;;;;1.27;0.80;;;;;;;;;;5040282;28;20188;-81
2023/10/22 06:07:38;;;;;;;1.17;0.70;;;;;;;;;;5040821;28;20193;-82
2023/10/22 06:10:04;;;;;;;1.20;0.90;;;;;;;;;;5058614;28;20177;-83
2023/10/22 06:12:30;;;;;;;0.98;0.80;;;;;;;;;;5040269;28;20227;-83
2023/10/22 06:15:03;;;;;;;3.47;0.93;;;;;;;;;;5057746;28;20637;-83
2023/10/22 06:17:29;;;;;;;1.02;0.70;;;;;;;;;;5038519;28;20652;-83
2023/10/22 06:19:55;;;;;;;1.35;0.60;;;;;;;;;;5037811;28;20166;-83
2023/10/22 06:22:21;;;;;;;2.00;0.90;;;;;;;;;;5039697;28;20594;-83
2023/10/22 06:24:47;;;;;;;1.47;0.77;;;;;;;;;;5056641;28;20407;-83
2023/10/22 06:27:13;;;;;;;1.88;0.80;;;;;;;;;;5055974;28;20423;-83
2023/10/22 06:29:39;;;;;;;3.47;0.70;;;;;;;;;;5056518;28;20181;-83
2023/10/22 06:32:05;;;;;;;3.80;0.60;;;;;;;;;;5055598;28;20177;-83
2023/10/22 06:34:31;;;;;;;5.05;0.80;;;;;;;;;;5057882;28;20507;-83
2023/10/22 06:36:57;;;;;;;1.98;0.80;;;;;;;;;;5057032;28;20236;-84
2023/10/22 06:39:23;;;;;;;1.95;0.80;;;;;;;;;;5057822;28;20208;-84
2023/10/22 06:41:49;;;;;;;1.57;0.70;;;;;;;;;;5055795;28;20248;-83
2023/10/22 06:44:17;;;;;;;2.70;0.80;;;;;;;;;;5039378;28;20436;-84
2023/10/22 06:46:43;;;;;;;2.78;1.20;;;;;;;;;;5056930;28;20177;-84
2023/10/22 06:49:09;;;;;;;4.90;0.80;;;;;;;;;;5039137;28;20183;-84
2023/10/22 06:51:35;;;;;;;1.10;0.90;;;;;;;;;;5039817;28;20416;-84
2023/10/22 06:54:00;;;;;;;1.20;0.90;;;;;;;;;;5024066;28;20905;-84
2023/10/22 06:56:26;;;;;;;1.10;0.73;;;;;;;;;;5039269;28;20861;-84
2023/10/22 06:58:52;;;;;;;2.40;0.77;;;;;;;;;;5039108;28;20470;-83
2023/10/22 07:01:18;;;;;;;1.00;0.80;;;;;;;;;;5056819;28;20446;-84
2023/10/22 07:03:46;;;;;;;3.70;0.90;;;;;;;;;;5055259;28;20490;-85
2023/10/22 07:06:12;;;;;;;1.55;0.80;;;;;;;;;;5038834;28;20408;-85
2023/10/22 07:08:38;;;;;;;2.45;1.40;;;;;;;;;;5056915;28;20609;-85
2023/10/22 07:11:04;;;;;;;2.03;1.00;;;;;;;;;;5057047;28;20507;-85
2023/10/22 07:13:30;;;;;;;1.90;1.27;;;;;;;;;;5056259;28;20189;-85
2023/10/22 07:15:56;;;;;;;1.50;1.10;;;;;;;;;;5056298;28;20413;-85
2023/10/22 07:18:23;;;;;;;2.90;1.02;;;;;;;;;;5038549;28;20194;-85
2023/10/22 07:20:49;;;;;;;2.28;1.20;;;;;;;;;;5038616;28;20615;-85
2023/10/22 07:23:15;;;;;;;2.80;1.10;;;;;;;;;;5038759;28;20209;-85
2023/10/22 07:25:41;;;;;;;2.45;1.05;;;;;;;;;;5038581;28;20188;-85
2023/10/22 07:28:07;;;;;;;2.15;1.02;;;;;;;;;;5056007;28;20174;-85
2023/10/22 07:30:33;;;;;;;2.85;1.00;;;;;;;;;;5056158;28;20177;-84
2023/10/22 07:32:59;;;;;;;2.22;1.20;;;;;;;;;;5038393;28;20537;-83
2023/10/22 07:35:25;;;;;;;2.10;1.05;;;;;;;;;;5056316;28;20170;-83
2023/10/22 07:37:52;;;;;;;2.67;1.10;;;;;;;;;;5038124;28;20233;-83
2023/10/22 07:40:18;;;;;;;1.60;0.90;;;;;;;;;;5056198;28;20177;-84
2023/10/22 07:42:44;;;;;;;1.75;1.00;;;;;;;;;;5037929;28;20673;-84
2023/10/22 07:45:11;;;;;;;6.22;1.17;;;;;;;;;;5021600;28;20185;-84
2023/10/22 07:47:37;;;;;;;1.80;1.00;;;;;;;;;;5038617;28;20212;-85
2023/10/22 07:50:04;;;;;;;2.55;0.90;;;;;;;;;;5037720;28;20197;-86
2023/10/22 07:52:31;;;;;;;1.13;1.00;;;;;;;;;;5038026;28;20189;-85
2023/10/22 07:54:57;;;;;;;2.88;1.15;;;;;;;;;;5055222;28;20215;-87
2023/10/22 07:57:23;;;;;;;2.38;1.02;;;;;;;;;;5021256;28;20347;-86
2023/10/22 07:59:49;;;;;;;1.30;1.00;;;;;;;;;;5038087;28;20215;-87
2023/10/22 08:02:15;;;;;;;4.73;1.13;;;;;;;;;;5037502;28;20483;-85
2023/10/22 08:04:41;;;;;;;2.67;1.17;;;;;;;;;;5038151;28;20416;-81
2023/10/22 08:07:07;;;;;;;2.10;1.10;;;;;;;;;;5038812;28;20511;-80
2023/10/22 08:09:33;;;;;;;1.40;1.30;;;;;;;;;;5039325;28;20185;-80
2023/10/22 08:11:59;;;;;;;2.10;1.00;;;;;;;;;;5027243;28;20209;-80
2023/10/22 08:14:25;;;;;;;1.60;1.20;;;;;;;;;;5070102;28;20426;-81
2023/10/22 08:16:51;;;;;;;2.90;1.17;;;;;;;;;;5044212;28;20196;-81
2023/10/22 08:19:17;;;;;;;1.17;1.03;;;;;;;;;;5038100;28;20181;-86
2023/10/22 08:21:43;;;;;;;3.30;1.05;;;;;;;;;;5036613;28;21053;-83
2023/10/22 08:24:09;;;;;;;1.30;1.20;;;;;;;;;;5037516;28;20181;-86
2023/10/22 08:26:35;;;;;;;0.90;0.73;;;;;;;;;;5054603;28;20914;-86
2023/10/22 08:29:01;;;;;;;1.10;1.00;;;;;;;;;;5054277;28;20178;-86
2023/10/22 08:31:27;;;;;;;2.80;1.00;;;;;;;;;;5054970;28;20414;-85
2023/10/22 08:33:53;;;;;;;1.33;1.20;;;;;;;;;;5037093;28;20406;-86
2023/10/22 08:36:19;;;;;;;1.10;1.00;;;;;;;;;;5036973;28;20408;-86
2023/10/22 08:38:45;;;;;;;2.80;1.20;;;;;;;;;;5036629;28;20460;-84
2023/10/22 08:41:15;;;;;;;1.27;0.87;;;;;;;;;;5053994;28;20502;-84
2023/10/22 08:43:43;;;;;;;2.35;1.02;;;;;;;;;;5036684;28;20523;-84
2023/10/22 08:46:09;;;;;;;1.20;1.00;;;;;;;;;;5054579;28;20252;-85
2023/10/22 08:48:36;;;;;;;1.65;1.10;;;;;;;;;;5036318;28;20193;-85
2023/10/22 08:51:03;;;;;;;2.07;1.23;;;;;;;;;;5036621;28;20181;-85
2023/10/22 08:53:29;;;;;;;1.10;1.00;;;;;;;;;;5054660;28;20475;-85
2023/10/22 08:55:56;;;;;;;1.65;1.35;;;;;;;;;;5036666;28;20185;-84
2023/10/22 08:58:22;;;;;;;2.03;0.90;;;;;;;;;;5053420;28;20642;-83
2023/10/22 09:00:49;;;;;;;2.25;1.00;;;;;;;;;;5020122;28;20637;-84
2023/10/22 09:03:16;;;;;;;1.88;1.05;;;;;;;;;;5035877;28;20205;-85
2023/10/22 09:05:42;;;;;;;1.02;0.93;;;;;;;;;;5053890;28;20181;-85
2023/10/22 09:08:09;;;;;;;2.45;1.20;;;;;;;;;;5053780;28;20205;-83
2023/10/22 09:10:36;;;;;;;1.10;1.00;;;;;;;;;;5020164;28;20196;-84
2023/10/22 09:13:08;;;;;;;1.15;0.93;;;;;;;;;;5054384;28;20179;-83
2023/10/22 09:15:41;;;;;;;0.95;0.80;;;;;;;;;;5054900;28;20174;-83
2023/10/22 09:18:07;;;;;;;2.13;1.00;;;;;;;;;;5054652;28;20180;-82
2023/10/22 09:20:34;;;;;;;1.65;1.02;;;;;;;;;;5054804;28;20640;-82
2023/10/22 09:23:14;;;;;;;0.90;0.80;;;;;;;;;;5054274;28;20756;-83
2023/10/22 09:25:40;;;;;;;1.33;0.82;;;;;;;;;;5054090;28;20173;-83
2023/10/22 09:28:24;;;;;;;2.03;1.20;;;;;;;;;;5020256;28;20182;-83
2023/10/22 09:31:00;;;;;;;0.80;0.80;;;;;;;;;;5054301;28;20196;-84
2023/10/22 09:33:42;;;;;;;1.10;0.95;;;;;;;;;;5036139;28;20185;-83
2023/10/22 09:36:09;;;;;;;2.22;1.30;;;;;;;;;;5036576;28;20170;-83
2023/10/22 09:38:45;;;;;;;2.63;2.30;;;;;;;;;;5036471;28;20569;-83
2023/10/22 09:41:12;;;;;;;3.42;2.00;;;;;;;;;;5037924;28;20260;-83
2023/10/22 09:43:38;;;;;;;3.05;2.70;;;;;;;;;;5055066;28;20197;-83
2023/10/22 09:46:07;;;;;;;2.50;1.35;;;;;;;;;;5036529;28;20226;-83
2023/10/22 09:48:34;;;;;;;3.90;2.95;;;;;;;;;;5036283;28;20637;-83
2023/10/22 09:51:00;;;;;;;4.07;1.65;;;;;;;;;;5036067;28;20219;-82
2023/10/22 09:53:30;;;;;;;5.38;3.85;;;;;;;;;;5054294;28;20523;-84
2023/10/22 09:55:57;;;;;;;6.90;6.22;;;;;;;;;;5036736;28;20638;-82
2023/10/22 09:58:30;;;;;;;36.45;30.85;;;;;;;;;;5036224;28;20270;-82
2023/10/22 10:00:57;;;;;;;2.87;1.97;;;;;;;;;;5036010;28;20182;-82
2023/10/22 10:03:24;;;;;;;2.13;1.63;;;;;;;;;;5035824;28;20460;-82
2023/10/22 10:05:51;;;;;;;6.70;1.58;;;;;;;;;;5036020;28;20235;-82
2023/10/22 10:08:17;;;;;;;27.08;17.83;;;;;;;;;;5037365;28;20182;-82
2023/10/22 10:10:45;;;;;;;89.60;55.20;;;;;;;;;;5034420;28;20178;-82
2023/10/22 10:13:11;;;;;;;70.18;41.33;;;;;;;;;;5016506;28;20186;-81
2023/10/22 10:15:38;;;;;;;42.83;25.15;;;;;;;;;;5017322;28;20185;-82
2023/10/22 10:18:07;;;;;;;92.47;52.47;;;;;;;;;;5016887;28;20214;-81
2023/10/22 10:20:35;;;;;;;10.10;7.23;;;;;;;;;;5034696;28;20228;-82
2023/10/22 10:23:04;;;;;;;22.50;14.02;;;;;;;;;;5034447;28;20456;-82
2023/10/22 10:25:34;;;;;;;2.70;1.30;;;;;;;;;;5034356;28;20170;-82
2023/10/22 10:28:01;;;;;;;14.83;11.07;;;;;;;;;;5034751;28;20255;-82
2023/10/22 10:30:27;;;;;;;1.77;1.15;;;;;;;;;;5030637;28;20418;-82
2023/10/22 10:32:53;;;;;;;1.50;1.15;;;;;;;;;;5034663;28;20284;-83
2023/10/22 10:35:20;;;;;;;1.70;1.10;;;;;;;;;;5024534;28;20212;-83
2023/10/22 10:38:05;;;;;;;26.38;15.50;;;;;;;;;;5019761;28;20472;-82
2023/10/22 10:40:43;;;;;;;2.70;1.63;;;;;;;;;;5020593;28;20182;-83
2023/10/22 10:43:09;;;;;;;10.97;7.20;;;;;;;;;;5019638;28;20693;-82
2023/10/22 10:45:35;;;;;;;33.83;18.40;;;;;;;;;;5020191;28;20463;-83
2023/10/22 10:48:01;;;;;;;4.72;1.50;;;;;;;;;;5020096;28;20416;-83
2023/10/22 10:50:27;;;;;;;3.20;1.30;;;;;;;;;;5020645;28;20196;-83
2023/10/22 10:52:57;;;;;;;14.68;7.88;;;;;;;;;;5038589;28;20269;-83
2023/10/22 10:55:23;;;;;;;27.92;12.43;;;;;;;;;;5020020;28;20182;-83
2023/10/22 10:57:50;;;;;;;1.65;1.55;;;;;;;;;;5020236;28;20201;-83
2023/10/22 11:00:24;;;;;;;2.10;1.60;;;;;;;;;;5019496;28;20174;-83
2023/10/22 11:02:51;;;;;;;6.80;4.30;;;;;;;;;;5019129;28;20942;-83
2023/10/22 11:05:20;;;;;;;65.50;32.50;;;;;;;;;;5018998;28;20421;-84
2023/10/22 11:07:47;;;;;;;56.90;29.42;;;;;;;;;;5037304;28;20512;-83
2023/10/22 11:10:14;;;;;;;7.33;2.17;;;;;;;;;;5019552;28;20194;-83
2023/10/22 11:12:40;;;;;;;6.03;1.30;;;;;;;;;;5019280;28;20459;-83
2023/10/22 11:15:11;;;;;;;1.47;1.13;;;;;;;;;;5019812;28;20940;-83
2023/10/22 11:17:45;;;;;;;17.20;8.63;;;;;;;;;;5019384;28;20875;-83
2023/10/22 11:20:13;;;;;;;42.33;20.10;;;;;;;;;;5020255;28;20186;-83
2023/10/22 11:22:39;;;;;;;5.50;2.78;;;;;;;;;;5037122;28;20472;-83
2023/10/22 11:25:07;;;;;;;4.83;1.53;;;;;;;;;;5019488;28;20200;-83
2023/10/22 11:27:34;;;;;;;3.67;1.50;;;;;;;;;;5037147;28;20865;-83
2023/10/22 11:30:00;;;;;;;10.10;6.30;;;;;;;;;;5019083;28;20451;-83
2023/10/22 11:32:26;;;;;;;4.73;3.30;;;;;;;;;;5050810;28;20896;-83
2023/10/22 11:34:54;;;;;;;3.80;3.40;;;;;;;;;;5019865;28;20417;-83
2023/10/22 11:37:30;;;;;;;36.80;22.50;;;;;;;;;;5022503;28;21026;-83
2023/10/22 11:39:56;;;;;;;17.77;10.43;;;;;;;;;;5056493;28;20772;-83
2023/10/22 11:42:23;;;;;;;16.70;10.50;;;;;;;;;;5038342;28;20494;-83
2023/10/22 11:44:49;;;;;;;6.30;4.30;;;;;;;;;;5056079;28;20738;-84
2023/10/22 11:47:27;;;;;;;1.77;1.60;;;;;;;;;;5038364;28;20778;-84
2023/10/22 11:49:54;;;;;;;7.00;4.30;;;;;;;;;;5038048;28;20412;-84
2023/10/22 11:52:36;;;;;;;2.93;1.60;;;;;;;;;;5038406;28;20409;-84
2023/10/22 11:55:03;;;;;;;163.00;102.43;;;;;;;;;;5055947;28;20423;-84
2023/10/22 11:57:30;;;;;;;15.33;10.40;;;;;;;;;;5038097;28;20833;-84
2023/10/22 11:59:56;;;;;;;2.20;1.43;;;;;;;;;;5038760;28;20729;-84
2023/10/22 12:02:22;;;;;;;2.23;1.63;;;;;;;;;;5055682;28;20459;-84
2023/10/22 12:04:48;;;;;;;5.10;2.13;;;;;;;;;;5021721;28;20816;-84
2023/10/22 12:07:14;;;;;;;11.90;6.30;;;;;;;;;;5055227;28;20424;-84
2023/10/22 12:09:40;;;;;;;3.10;1.47;;;;;;;;;;5055833;28;20431;-84
2023/10/22 12:12:07;;;;;;;2.90;1.90;;;;;;;;;;5056001;28;20455;-84
2023/10/22 12:14:33;;;;;;;1.50;1.40;;;;;;;;;;5055543;28;20396;-84
2023/10/22 12:16:59;;;;;;;1.57;1.47;;;;;;;;;;5055402;28;20404;-84
2023/10/22 12:19:25;;;;;;;5.20;1.30;;;;;;;;;;5037592;28;20420;-84
2023/10/22 12:21:51;;;;;;;1.73;1.10;;;;;;;;;;5037622;28;20829;-81
2023/10/22 12:24:17;;;;;;;1.50;1.07;;;;;;;;;;5021585;28;20420;-83
2023/10/22 12:26:43;;;;;;;2.10;1.17;;;;;;;;;;5055649;28;20408;-82
2023/10/22 12:29:09;;;;;;;2.40;1.60;;;;;;;;;;5037842;28;20509;-84
2023/10/22 12:31:35;;;;;;;2.27;1.93;;;;;;;;;;5037202;28;20426;-84
2023/10/22 12:34:01;;;;;;;1.63;1.53;;;;;;;;;;5036900;28;20491;-82
2023/10/22 12:36:27;;;;;;;2.70;1.70;;;;;;;;;;5020935;28;20466;-84
2023/10/22 12:38:54;;;;;;;2.90;1.77;;;;;;;;;;5053054;28;20846;-83
2023/10/22 12:41:20;;;;;;;6.43;4.17;;;;;;;;;;5035051;28;20424;-82
2023/10/22 12:43:46;;;;;;;1.87;1.67;;;;;;;;;;5055679;28;20464;-82
2023/10/22 12:46:12;;;;;;;3.30;2.20;;;;;;;;;;5037530;28;20435;-84
2023/10/22 12:48:38;;;;;;;5.53;3.50;;;;;;;;;;5050131;28;20420;-84
2023/10/22 12:51:04;;;;;;;5.23;3.90;;;;;;;;;;5045149;28;20415;-84
2023/10/22 12:53:30;;;;;;;6.70;4.73;;;;;;;;;;5053493;28;20415;-84
2023/10/22 12:55:57;;;;;;;4.03;3.13;;;;;;;;;;5054844;28;20419;-85
2023/10/22 12:58:23;;;;;;;3.17;2.83;;;;;;;;;;5036758;28;20412;-85
2023/10/22 13:00:49;;;;;;;1.80;1.70;;;;;;;;;;5054254;28;20915;-84
2023/10/22 13:03:15;;;;;;;3.80;2.23;;;;;;;;;;5036027;28;20545;-84
2023/10/22 13:05:41;;;;;;;1.70;1.60;;;;;;;;;;5036836;28;20416;-86
2023/10/22 13:08:09;;;;;;;2.30;1.83;;;;;;;;;;5036276;28;20435;-86
2023/10/22 13:10:35;;;;;;;1.47;1.37;;;;;;;;;;5037019;28;20443;-86
2023/10/22 13:13:01;;;;;;;4.00;2.33;;;;;;;;;;5054611;28;20415;-85
2023/10/22 13:15:27;;;;;;;1.27;1.10;;;;;;;;;;5054513;28;20928;-86
2023/10/22 13:17:54;;;;;;;2.40;1.23;;;;;;;;;;5036170;28;20421;-86
2023/10/22 13:20:20;;;;;;;3.53;2.13;;;;;;;;;;5053514;28;20427;-87
2023/10/22 13:22:46;;;;;;;1.83;1.50;;;;;;;;;;5054253;28;20456;-86
2023/10/22 13:25:12;;;;;;;2.13;1.20;;;;;;;;;;5054120;28;20893;-86
2023/10/22 13:27:39;;;;;;;1.10;0.93;;;;;;;;;;5036354;28;20452;-86
2023/10/22 13:30:05;;;;;;;1.93;1.10;;;;;;;;;;5036411;28;20404;-86
2023/10/22 13:32:31;;;;;;;2.30;1.13;;;;;;;;;;5036479;28;20489;-85
2023/10/22 13:34:57;;;;;;;1.43;1.33;;;;;;;;;;5036453;28;20438;-86
2023/10/22 13:37:23;;;;;;;1.20;0.93;;;;;;;;;;5019274;28;20467;-86
2023/10/22 13:39:49;;;;;;;1.70;1.10;;;;;;;;;;5036808;28;20534;-86
2023/10/22 13:42:15;;;;;;;1.53;1.10;;;;;;;;;;5036303;28;20487;-85
2023/10/22 13:44:43;;;;;;;1.70;0.90;;;;;;;;;;5054258;28;20810;-86
2023/10/22 13:47:10;;;;;;;1.50;1.10;;;;;;;;;;5020857;28;20416;-86
2023/10/22 13:49:36;;;;;;;2.60;1.33;;;;;;;;;;5035883;28;20947;-85
2023/10/22 13:52:03;;;;;;;4.23;1.43;;;;;;;;;;5026358;28;20424;-85
2023/10/22 13:54:30;;;;;;;2.70;1.70;;;;;;;;;;5021305;28;20416;-85
2023/10/22 13:56:56;;;;;;;2.47;1.80;;;;;;;;;;5036353;28;20935;-86
2023/10/22 13:59:22;;;;;;;3.23;2.60;;;;;;;;;;5035911;28;20412;-85
2023/10/22 14:01:48;;;;;;;2.30;1.40;;;;;;;;;;5054417;28;21030;-83
2023/10/22 14:04:14;;;;;;;3.00;2.27;;;;;;;;;;5036852;28;20509;-82
2023/10/22 14:06:40;;;;;;;2.20;1.37;;;;;;;;;;5054385;28;20582;-84
2023/10/22 14:09:06;;;;;;;1.47;1.37;;;;;;;;;;5020412;28;20416;-84
2023/10/22 14:11:32;;;;;;;1.70;1.13;;;;;;;;;;5054309;28;20462;-83
2023/10/22 14:13:58;;;;;;;1.63;1.00;;;;;;;;;;5042934;28;20434;-82
2023/10/22 14:16:24;;;;;;;2.40;1.20;;;;;;;;;;5019928;28;20456;-82
2023/10/22 14:18:50;;;;;;;1.73;1.63;;;;;;;;;;5020748;28;20764;-82
2023/10/22 14:21:18;;;;;;;1.83;1.73;;;;;;;;;;5020276;28;20408;-82
2023/10/22 14:23:44;;;;;;;2.33;2.13;;;;;;;;;;5020511;28;20472;-82
2023/10/22 14:26:10;;;;;;;1.70;1.60;;;;;;;;;;5020323;28;20413;-82
2023/10/22 14:28:36;;;;;;;1.90;1.70;;;;;;;;;;5020018;28;20415;-82
2023/10/22 14:31:06;;;;;;;3.70;2.10;;;;;;;;;;5024646;28;20424;-82
2023/10/22 14:33:32;;;;;;;2.97;1.30;;;;;;;;;;5057635;28;20463;-82
2023/10/22 14:36:02;;;;;;;1.73;1.40;;;;;;;;;;5055956;28;20415;-82
2023/10/22 14:38:28;;;;;;;2.80;1.80;;;;;;;;;;5056593;28;20455;-82